6I6 weather

Darby Dan Airport
Columbus, Ohio, United States

Public forecast

Using degrees Fahrenheit for public forecast. Weather courtesy of forecast.io.

Closest aviation weather report (METAR) to Darby Dan Airport

Closest report is Bolton Field, 4.0 nm (7.4 km) SE. Retrieved 2020/06/03 05:55 UTC (18 minutes ago):

KTZR 030555Z AUTO 25014KT 10SM CLR 23/13 A2991 RMK AO2 T02300132 10285 20229

Closest aviation forecast (TAF) to Darby Dan Airport

Closest forecast is John Glenn Columbus International Airport, 14.8 nm (27.4 km) ENE. Retrieved 2020/06/03 06:36 UTC (0 seconds ago):

TAF KCMH 030533Z 0306/0406 23010KT P6SM SKC FM031200 24012KT P6SM SCT040 BKN150 FM031500 24012G22KT P6SM BKN035 FM032200 26012G22KT P6SM -SHRA VCTS BKN040CB FM040200 26012KT P6SM -SHRA BKN035